PMDY METAR and TAF weather

Enter ICAO airport designator
Station Type Date Time Source
PMDY METAR 2020/07/11 19:56 UTC NOAA

PMDY 111956Z AUTO 14007KT 8SM CLR 27/23 A3013 RMK AO2 SLP203 T02720233


Station Type Date Time Source
PMDY Decoded METAR 2020/07/11 19:56 UTC NOAA

Sand Island, Henderson Field Airport, HI, United States (PMDY) 28-13N 177-22W 6M
Jul 11, 2020 - 03:56 PM EDT / 2020.07.11 1956 UTC
Wind: from the SE (140 degrees) at 8 MPH (7 KT):0
Visibility: 8 mile(s):0
Sky conditions: clear
Temperature: 81.0 F (27.2 C)
Dew Point: 73.9 F (23.3 C)
Relative Humidity: 79%
Pressure (altimeter): 30.13 in. Hg (1020 hPa)
ob: PMDY 111956Z AUTO 14007KT 8SM CLR 27/23 A3013 RMK AO2 SLP203 T02720233
cycle: 20

Station Type Date Time Source
PMDY TAF 2020/07/11 18:36 UTC NOAA

PMDY 111733Z 1118/1218 15008KT P6SM FEW020
FM120500 VRB05KT P6SM SCT020

Example: see airport list